Zum Inhalt springen

Flugplatzwetter

EDAZ 291214Z AUTO 22007KT 9999 -SHRA ///047/// 12/08 Q1011 RMK TL70 WND2/23009KT=

4-Tage Wetter

Sonnenauf- und untergangszeiten

Im Folgenden finden Sie eine Übersicht der Sonnenauf- und untergangszeiten der nächsten 14 Tage.

Alle Zeiten local.

Datum Sonnenaufgang
28.05.2022 04:53 21:15
29.05.2022 04:52 21:16
30.05.2022 04:51 21:18
31.05.2022 04:50 21:19
01.06.2022 04:49 21:20
02.06.2022 04:48 21:21
03.06.2022 04:48 21:22
04.06.2022 04:47 21:23
05.06.2022 04:46 21:24
06.06.2022 04:46 21:25
07.06.2022 04:45 21:26
08.06.2022 04:45 21:27
09.06.2022 04:44 21:28
10.06.2022 04:44 21:28
11.06.2022 04:43 21:29
12.06.2022 04:43 21:30